createdAt,value
2017-07-05T00:02:10.267Z,21.70
2017-07-05T00:04:37.150Z,21.60
2017-07-05T00:07:04.168Z,21.60
2017-07-05T00:09:31.450Z,21.60
2017-07-05T00:11:58.347Z,21.60
2017-07-05T00:14:25.336Z,21.50
2017-07-05T00:16:52.226Z,21.40
2017-07-05T00:19:19.206Z,21.40
2017-07-05T00:21:46.134Z,21.30
2017-07-05T00:24:13.118Z,21.20
2017-07-05T00:26:40.459Z,21.00
2017-07-05T00:29:07.809Z,20.90
2017-07-05T00:31:34.765Z,21.00
2017-07-05T00:34:02.114Z,20.80
2017-07-05T00:36:29.464Z,20.90
2017-07-05T00:38:56.410Z,20.90
2017-07-05T00:41:23.301Z,21.00
2017-07-05T00:43:50.301Z,20.90
2017-07-05T00:46:17.192Z,20.90
2017-07-05T00:48:44.096Z,20.90
2017-07-05T00:51:11.046Z,21.00
2017-07-05T00:53:38.416Z,21.00
2017-07-05T00:56:05.723Z,21.00
2017-07-05T00:58:32.655Z,21.00
2017-07-05T01:00:59.537Z,20.90
2017-07-05T01:03:26.491Z,20.90
2017-07-05T01:05:53.811Z,20.70
2017-07-05T01:08:20.697Z,20.70
2017-07-05T01:10:47.988Z,20.60
2017-07-05T01:13:14.989Z,20.60
2017-07-05T01:15:41.954Z,20.70
2017-07-05T01:18:09.344Z,20.60
2017-07-05T01:20:36.295Z,20.60
2017-07-05T01:23:03.184Z,20.60
2017-07-05T01:25:30.139Z,20.50
2017-07-05T01:27:57.491Z,20.50
2017-07-05T01:30:24.377Z,20.50
2017-07-05T01:32:51.277Z,20.50
2017-07-05T01:35:18.211Z,20.50
2017-07-05T01:37:45.171Z,20.50
2017-07-05T01:40:12.059Z,20.40
2017-07-05T01:42:38.982Z,20.40
2017-07-05T01:45:06.271Z,20.20
2017-07-05T01:47:33.154Z,20.20
2017-07-05T01:50:00.118Z,20.20
2017-07-05T01:52:27.438Z,20.20
2017-07-05T01:54:54.418Z,20.20
2017-07-05T01:57:21.734Z,20.20
2017-07-05T01:59:48.622Z,20.20
2017-07-05T02:02:16.306Z,20.10
2017-07-05T02:04:43.193Z,20.10
2017-07-05T02:07:10.179Z,20.10
2017-07-05T02:09:37.515Z,20.00
2017-07-05T02:12:04.465Z,20.10
2017-07-05T02:14:31.358Z,20.00
2017-07-05T02:16:58.296Z,20.10
2017-07-05T02:19:25.203Z,20.10
2017-07-05T02:21:52.537Z,20.10
2017-07-05T02:24:19.516Z,20.10
2017-07-05T02:26:46.797Z,19.90
2017-07-05T02:29:13.714Z,19.90
2017-07-05T02:31:41.054Z,19.90
2017-07-05T02:34:07.959Z,19.90
2017-07-05T02:36:34.950Z,19.80
2017-07-05T02:39:01.925Z,19.70
2017-07-05T02:41:28.814Z,19.60
2017-07-05T02:43:55.696Z,19.50
2017-07-05T02:46:23.069Z,19.50
2017-07-05T02:48:49.998Z,19.50
2017-07-05T02:51:17.285Z,19.40
2017-07-05T02:53:44.226Z,19.40
2017-07-05T02:56:11.145Z,19.40
2017-07-05T03:01:10.930Z,19.40
2017-07-05T03:03:37.811Z,19.40
2017-07-05T03:06:04.698Z,19.40
2017-07-05T03:08:31.702Z,19.30
2017-07-05T03:10:58.582Z,19.20
2017-07-05T03:13:25.501Z,19.20
2017-07-05T03:15:52.854Z,19.30
2017-07-05T03:18:20.205Z,19.20
2017-07-05T03:20:47.092Z,19.20
2017-07-05T03:23:14.025Z,19.20
2017-07-05T03:25:40.943Z,19.10
2017-07-05T03:28:07.889Z,19.10
2017-07-05T03:30:36.029Z,19.20
2017-07-05T03:33:03.006Z,19.20
2017-07-05T03:35:29.978Z,19.10
2017-07-05T03:37:57.015Z,19.10
2017-07-05T03:40:24.370Z,19.20
2017-07-05T03:42:51.730Z,19.30
2017-07-05T03:45:18.682Z,19.30
2017-07-05T03:47:45.958Z,19.30
2017-07-05T03:50:12.864Z,19.30
2017-07-05T03:52:39.821Z,19.30
2017-07-05T03:55:07.107Z,19.30
2017-07-05T03:57:34.026Z,19.30
2017-07-05T04:00:01.394Z,19.30
2017-07-05T04:02:28.742Z,19.20
2017-07-05T04:04:56.099Z,19.20
2017-07-05T04:07:23.542Z,19.30
2017-07-05T04:09:50.437Z,19.30
2017-07-05T04:12:17.348Z,19.40
2017-07-05T04:14:44.671Z,19.40
2017-07-05T04:17:11.630Z,19.40
2017-07-05T04:19:38.535Z,19.50
2017-07-05T04:22:05.478Z,19.60
2017-07-05T04:24:32.377Z,19.70
2017-07-05T04:26:59.285Z,19.70
2017-07-05T04:29:26.215Z,19.80
2017-07-05T04:31:53.093Z,19.80
2017-07-05T04:34:19.983Z,20.00
2017-07-05T04:36:47.002Z,20.00
2017-07-05T04:39:13.953Z,20.10
2017-07-05T04:41:41.317Z,20.20
2017-07-05T04:44:08.670Z,20.20
2017-07-05T04:46:36.022Z,20.30
2017-07-05T04:49:02.971Z,20.30
2017-07-05T04:51:30.317Z,20.50
2017-07-05T04:53:57.206Z,20.50
2017-07-05T04:56:24.114Z,20.50
2017-07-05T04:58:51.058Z,20.60
2017-07-05T05:01:17.939Z,20.70
2017-07-05T05:03:44.846Z,20.70
2017-07-05T05:06:11.784Z,20.70
2017-07-05T05:08:38.743Z,20.70
2017-07-05T05:11:05.685Z,20.70
2017-07-05T05:13:32.633Z,20.70
2017-07-05T05:16:00.367Z,20.80
2017-07-05T05:18:27.355Z,20.90
2017-07-05T05:20:54.678Z,20.70
2017-07-05T05:23:21.573Z,20.70
2017-07-05T05:25:48.490Z,20.70
2017-07-05T05:28:15.426Z,20.80
2017-07-05T05:30:42.318Z,20.90
2017-07-05T05:33:09.230Z,21.00
2017-07-05T05:35:36.276Z,21.00
2017-07-05T05:38:03.234Z,21.10
2017-07-05T05:40:30.722Z,21.10
2017-07-05T05:42:57.718Z,21.10
2017-07-05T05:45:24.598Z,21.20
2017-07-05T05:47:51.518Z,21.20
2017-07-05T05:50:18.520Z,21.30
2017-07-05T05:52:45.401Z,21.30
2017-07-05T05:55:12.297Z,21.40
2017-07-05T05:57:39.405Z,21.50
2017-07-05T06:00:06.362Z,21.60
2017-07-05T06:02:33.758Z,21.60
2017-07-05T06:05:00.766Z,21.60
2017-07-05T06:07:27.701Z,21.70
2017-07-05T06:09:54.600Z,21.70
2017-07-05T06:12:21.632Z,21.60
2017-07-05T06:14:48.589Z,21.70
2017-07-05T06:17:15.546Z,21.70
2017-07-05T06:19:42.898Z,21.90
2017-07-05T06:22:10.182Z,21.90
2017-07-05T06:24:37.146Z,21.90
2017-07-05T06:27:04.491Z,22.00
2017-07-05T06:29:31.862Z,22.00
2017-07-05T06:31:59.204Z,22.00
2017-07-05T06:34:26.669Z,22.10
2017-07-05T06:36:53.952Z,22.10
2017-07-05T06:39:20.867Z,22.10
2017-07-05T06:41:48.229Z,22.20
2017-07-05T06:44:15.133Z,22.20
2017-07-05T06:46:42.106Z,22.30
2017-07-05T06:49:09.060Z,22.30
2017-07-05T06:51:36.353Z,22.20
2017-07-05T06:54:03.229Z,22.20
2017-07-05T06:56:30.210Z,22.10
2017-07-05T06:58:57.594Z,22.40
2017-07-05T07:01:24.469Z,22.40
2017-07-05T07:03:51.470Z,22.50
2017-07-05T07:06:18.375Z,22.70
2017-07-05T07:08:45.340Z,22.60
2017-07-05T07:11:12.693Z,22.70
2017-07-05T07:13:39.977Z,22.90
2017-07-05T07:16:06.872Z,22.90
2017-07-05T07:18:33.818Z,23.10
2017-07-05T07:21:00.738Z,23.20
2017-07-05T07:23:27.709Z,23.40
2017-07-05T07:25:54.638Z,23.60
2017-07-05T07:28:21.611Z,23.70
2017-07-05T07:30:48.962Z,23.90
2017-07-05T07:33:15.943Z,23.90
2017-07-05T07:35:42.862Z,24.00
2017-07-05T07:38:10.149Z,24.00
2017-07-05T07:40:37.077Z,24.00
2017-07-05T07:43:03.961Z,23.80
2017-07-05T07:45:30.848Z,23.70
2017-07-05T07:47:57.854Z,23.80
2017-07-05T07:50:24.738Z,24.00
2017-07-05T07:52:51.622Z,24.20
2017-07-05T07:55:18.562Z,24.50
2017-07-05T07:57:45.847Z,25.00
2017-07-05T08:00:12.763Z,25.00
2017-07-05T08:02:39.700Z,25.10
2017-07-05T08:05:06.987Z,25.40
2017-07-05T08:07:33.871Z,25.40
2017-07-05T08:10:00.849Z,25.40
2017-07-05T08:12:28.131Z,25.60
2017-07-05T08:14:55.023Z,25.60
2017-07-05T08:17:21.954Z,25.70
2017-07-05T08:19:48.850Z,25.80
2017-07-05T08:22:15.738Z,25.90
2017-07-05T08:24:42.662Z,25.80
2017-07-05T08:27:09.589Z,25.70
2017-07-05T08:29:36.479Z,25.80
2017-07-05T08:32:03.409Z,25.70
2017-07-05T08:34:30.290Z,25.40
2017-07-05T08:36:57.576Z,25.20
2017-07-05T08:39:24.505Z,25.20
2017-07-05T08:41:51.423Z,25.30
2017-07-05T08:44:18.703Z,25.80
2017-07-05T08:46:45.714Z,25.80
2017-07-05T08:49:12.598Z,26.00
2017-07-05T08:51:39.492Z,26.20
2017-07-05T08:54:06.461Z,26.30
2017-07-05T08:56:33.755Z,26.40
2017-07-05T08:59:00.634Z,26.40
2017-07-05T09:01:27.570Z,26.60
2017-07-05T09:03:54.470Z,26.80
2017-07-05T09:06:21.397Z,26.90
2017-07-05T09:08:48.717Z,26.50
2017-07-05T09:11:15.612Z,26.50
2017-07-05T09:13:42.943Z,26.30
2017-07-05T09:16:09.882Z,26.30
2017-07-05T09:18:36.837Z,26.50
2017-07-05T09:21:03.732Z,26.70
2017-07-05T09:23:30.651Z,26.80
2017-07-05T09:25:57.990Z,27.10
2017-07-05T09:28:24.942Z,27.10
2017-07-05T09:30:52.294Z,26.80
2017-07-05T09:33:19.243Z,26.90
2017-07-05T09:35:46.522Z,27.10
2017-07-05T09:38:13.651Z,27.10
2017-07-05T09:40:40.962Z,27.20
2017-07-05T09:43:07.877Z,27.20
2017-07-05T09:45:35.851Z,27.40
2017-07-05T09:48:02.881Z,27.40
2017-07-05T09:50:30.260Z,27.20
2017-07-05T09:52:57.268Z,27.20
2017-07-05T09:55:24.213Z,27.30
2017-07-05T09:57:51.523Z,27.60
2017-07-05T10:00:19.950Z,27.70
2017-07-05T10:02:46.913Z,27.80
2017-07-05T10:05:13.996Z,28.00
2017-07-05T10:07:40.982Z,28.00
2017-07-05T10:10:07.877Z,28.10
2017-07-05T10:12:34.928Z,28.10
2017-07-05T10:15:01.857Z,28.10
2017-07-05T10:17:28.786Z,28.20
2017-07-05T10:19:56.151Z,28.00
2017-07-05T10:22:23.736Z,27.90
2017-07-05T10:24:50.653Z,27.90
2017-07-05T10:27:17.949Z,28.00
2017-07-05T10:29:44.996Z,28.00
2017-07-05T10:32:12.037Z,28.10
2017-07-05T10:34:38.937Z,28.00
2017-07-05T10:37:06.006Z,28.00
2017-07-05T10:39:33.336Z,27.60
2017-07-05T10:42:00.293Z,27.70
2017-07-05T10:44:27.792Z,28.20
2017-07-05T10:46:54.841Z,28.20
2017-07-05T10:49:21.776Z,28.40
2017-07-05T10:51:48.817Z,28.20
2017-07-05T10:54:15.735Z,27.80
2017-07-05T10:56:42.855Z,27.70
2017-07-05T10:59:09.934Z,28.00
2017-07-05T11:01:37.470Z,28.50
2017-07-05T11:04:04.434Z,28.50
2017-07-05T11:06:31.541Z,28.70
2017-07-05T11:08:58.495Z,28.80
2017-07-05T11:11:25.452Z,29.00
2017-07-05T11:13:52.411Z,29.10
2017-07-05T11:16:19.525Z,29.30
2017-07-05T11:18:46.466Z,29.40
2017-07-05T11:21:13.404Z,29.50
2017-07-05T11:23:40.422Z,29.60
2017-07-05T11:26:07.431Z,29.60
2017-07-05T11:28:34.395Z,29.40
2017-07-05T11:31:01.326Z,29.50
2017-07-05T11:33:28.290Z,29.60
2017-07-05T11:35:55.234Z,29.60
2017-07-05T11:38:22.283Z,29.80
2017-07-05T11:40:49.170Z,29.80
2017-07-05T11:43:16.512Z,29.40
2017-07-05T11:45:43.879Z,29.40
2017-07-05T11:48:11.311Z,29.40
2017-07-05T11:50:38.242Z,29.40
2017-07-05T11:53:05.340Z,29.40
2017-07-05T11:55:32.277Z,29.40
2017-07-05T11:57:59.723Z,29.50
2017-07-05T12:00:27.056Z,29.40
2017-07-05T12:02:54.022Z,29.40
2017-07-05T12:05:21.077Z,29.30
2017-07-05T12:07:48.360Z,28.90
2017-07-05T12:10:15.274Z,28.90
2017-07-05T12:12:42.226Z,29.10
2017-07-05T12:15:09.122Z,29.10
2017-07-05T12:17:36.023Z,29.20
2017-07-05T12:20:03.390Z,29.00
2017-07-05T12:22:30.733Z,29.10
2017-07-05T12:24:57.683Z,29.20
2017-07-05T12:27:25.076Z,29.70
2017-07-05T12:29:51.966Z,29.70
2017-07-05T12:32:18.864Z,29.70
2017-07-05T12:34:45.791Z,29.40
2017-07-05T12:37:13.082Z,29.10
2017-07-05T12:39:40.074Z,29.10
2017-07-05T12:42:07.430Z,29.50
2017-07-05T12:44:34.756Z,29.30
2017-07-05T12:47:01.898Z,29.30
2017-07-05T12:49:28.880Z,29.20
2017-07-05T12:51:55.789Z,29.40
2017-07-05T12:54:23.138Z,29.90
2017-07-05T12:56:50.092Z,29.90
2017-07-05T12:59:17.378Z,29.50
2017-07-05T13:01:44.301Z,29.50
2017-07-05T13:04:11.647Z,29.80
2017-07-05T13:06:38.998Z,29.60
2017-07-05T13:09:06.358Z,29.70
2017-07-05T13:11:33.694Z,29.50
2017-07-05T13:14:00.590Z,29.50
2017-07-05T13:16:27.508Z,29.80
2017-07-05T13:18:54.862Z,30.40
2017-07-05T13:21:22.648Z,30.20
2017-07-05T13:23:49.611Z,30.20
2017-07-05T13:26:16.551Z,30.10
2017-07-05T13:28:43.442Z,30.20
2017-07-05T13:31:10.394Z,30.00
2017-07-05T13:33:37.734Z,30.20
2017-07-05T13:36:04.698Z,30.30
2017-07-05T13:38:32.050Z,29.70
2017-07-05T13:40:59.109Z,29.70
2017-07-05T13:43:26.463Z,30.00
2017-07-05T13:45:53.750Z,30.20
2017-07-05T13:48:20.762Z,30.20
2017-07-05T13:50:48.046Z,30.30
2017-07-05T13:53:14.957Z,30.30
2017-07-05T13:55:42.356Z,30.50
2017-07-05T13:58:09.239Z,30.50
2017-07-05T14:00:36.159Z,30.70
2017-07-05T14:03:03.155Z,30.80
2017-07-05T14:05:30.046Z,30.90
2017-07-05T14:07:56.931Z,30.70
2017-07-05T14:10:23.886Z,30.40
2017-07-05T14:12:50.782Z,30.20
2017-07-05T14:15:17.669Z,30.10
2017-07-05T14:17:44.637Z,30.30
2017-07-05T14:20:12.025Z,30.70
2017-07-05T14:22:38.924Z,30.70
2017-07-05T14:25:06.185Z,30.80
2017-07-05T14:27:33.538Z,31.10
2017-07-05T14:30:00.839Z,31.20
2017-07-05T14:32:28.181Z,31.30
2017-07-05T14:34:55.091Z,31.40
2017-07-05T14:37:21.983Z,31.70
2017-07-05T14:39:48.906Z,31.80
2017-07-05T14:42:16.243Z,31.90
2017-07-05T14:44:43.591Z,31.90
2017-07-05T14:47:10.566Z,31.90
2017-07-05T14:49:37.503Z,31.90
2017-07-05T14:52:04.851Z,31.60
2017-07-05T14:54:32.209Z,31.80
2017-07-05T14:56:59.486Z,32.10
2017-07-05T14:59:26.386Z,32.10
2017-07-05T15:01:53.350Z,32.30
2017-07-05T15:04:20.742Z,32.70
2017-07-05T15:06:47.638Z,32.70
2017-07-05T15:09:14.606Z,32.80
2017-07-05T15:11:41.894Z,32.00
2017-07-05T15:14:08.814Z,32.00
2017-07-05T15:16:36.153Z,32.00
2017-07-05T15:19:03.505Z,32.10
2017-07-05T15:21:30.408Z,32.10
2017-07-05T15:23:57.339Z,31.90
2017-07-05T15:26:24.218Z,31.90
2017-07-05T15:28:51.144Z,32.10
2017-07-05T15:31:18.143Z,32.10
2017-07-05T15:33:45.502Z,32.10
2017-07-05T15:36:12.783Z,32.30
2017-07-05T15:38:39.706Z,32.30
2017-07-05T15:41:07.028Z,32.80
2017-07-05T15:43:34.006Z,32.80
2017-07-05T15:46:01.359Z,32.60
2017-07-05T15:48:28.716Z,32.30
2017-07-05T15:50:56.079Z,32.20
2017-07-05T15:53:23.394Z,32.40
2017-07-05T15:55:50.300Z,32.40
2017-07-05T15:58:17.188Z,32.70
2017-07-05T16:00:44.274Z,32.90
2017-07-05T16:03:11.211Z,32.80
2017-07-05T16:05:38.489Z,32.20
2017-07-05T16:08:05.422Z,32.20
2017-07-05T16:10:32.310Z,32.10
2017-07-05T16:12:59.299Z,32.10
2017-07-05T16:15:26.226Z,32.10
2017-07-05T16:17:53.198Z,32.10
2017-07-05T16:20:20.554Z,32.00
2017-07-05T16:22:47.917Z,31.90
2017-07-05T16:25:15.278Z,32.00
2017-07-05T16:27:42.622Z,32.00
2017-07-05T16:30:09.946Z,32.00
2017-07-05T16:32:36.882Z,32.00
2017-07-05T16:35:03.862Z,32.00
2017-07-05T16:37:30.830Z,32.80
2017-07-05T16:39:58.134Z,34.10
2017-07-05T16:42:25.118Z,34.10
2017-07-05T16:44:52.159Z,34.80
2017-07-05T16:47:19.122Z,35.50
2017-07-05T16:49:46.470Z,35.80
2017-07-05T16:52:13.403Z,35.80
2017-07-05T16:54:40.378Z,35.60
2017-07-05T16:57:07.719Z,34.10
2017-07-05T16:59:34.682Z,34.10
2017-07-05T17:02:02.069Z,33.00
2017-07-05T17:04:28.946Z,33.00
2017-07-05T17:06:55.963Z,32.70
2017-07-05T17:09:22.863Z,32.60
2017-07-05T17:11:49.811Z,32.60
2017-07-05T17:14:16.762Z,33.30
2017-07-05T17:16:43.663Z,34.20
2017-07-05T17:19:10.669Z,35.80
2017-07-05T17:21:38.130Z,39.10
2017-07-05T17:24:05.406Z,40.60
2017-07-05T17:26:32.290Z,40.60
2017-07-05T17:28:59.251Z,41.30
2017-07-05T17:31:26.134Z,42.00
2017-07-05T17:33:53.024Z,42.50
2017-07-05T17:36:19.985Z,42.50
2017-07-05T17:38:46.933Z,42.40
2017-07-05T17:41:14.215Z,42.70
2017-07-05T17:43:41.161Z,42.70
2017-07-05T17:46:08.078Z,43.20
2017-07-05T17:48:35.027Z,43.70
2017-07-05T17:51:01.966Z,43.10
2017-07-05T17:53:28.921Z,42.60
2017-07-05T17:55:56.273Z,42.00
2017-07-05T17:58:23.223Z,42.00
2017-07-05T18:00:50.586Z,40.90
2017-07-05T18:03:17.874Z,39.80
2017-07-05T18:05:44.878Z,39.80
2017-07-05T18:08:12.038Z,39.00
2017-07-05T18:10:39.318Z,37.80
2017-07-05T18:13:06.246Z,37.80
2017-07-05T18:15:33.585Z,36.70
2017-07-05T18:18:00.550Z,36.70
2017-07-05T18:20:27.554Z,36.10
2017-07-05T18:22:54.441Z,35.50
2017-07-05T18:25:21.786Z,34.70
2017-07-05T18:27:49.142Z,34.20
2017-07-05T18:30:16.421Z,33.80
2017-07-05T18:32:43.339Z,33.80
2017-07-05T18:35:10.291Z,33.30
2017-07-05T18:37:37.585Z,32.90
2017-07-05T18:40:04.579Z,32.90
2017-07-05T18:42:31.535Z,32.90
2017-07-05T18:44:58.878Z,32.60
2017-07-05T18:47:25.830Z,32.60
2017-07-05T18:49:52.770Z,32.20
2017-07-05T18:52:19.722Z,31.80
2017-07-05T18:54:46.666Z,31.20
2017-07-05T18:57:13.603Z,30.90
2017-07-05T18:59:40.493Z,30.60
2017-07-05T19:02:07.404Z,30.50
2017-07-05T19:04:34.401Z,30.30
2017-07-05T19:07:01.297Z,30.20
2017-07-05T19:09:28.258Z,30.10
2017-07-05T19:11:55.610Z,29.70
2017-07-05T19:14:22.559Z,29.70
2017-07-05T19:16:49.906Z,29.50
2017-07-05T19:19:17.227Z,29.50
2017-07-05T19:21:44.209Z,29.50
2017-07-05T19:24:11.089Z,29.50
2017-07-05T19:26:38.036Z,29.50
2017-07-05T19:29:04.919Z,29.40
2017-07-05T19:31:31.902Z,29.30
2017-07-05T19:33:59.250Z,29.20
2017-07-05T19:36:26.534Z,29.10
2017-07-05T19:38:53.432Z,29.10
2017-07-05T19:41:20.403Z,29.00
2017-07-05T19:43:47.682Z,28.80
2017-07-05T19:46:14.590Z,28.80
2017-07-05T19:48:41.545Z,28.70
2017-07-05T19:51:08.823Z,28.80
2017-07-05T19:53:35.743Z,28.80
2017-07-05T19:56:03.075Z,28.80
2017-07-05T19:58:29.962Z,28.80
2017-07-05T20:00:57.502Z,28.70
2017-07-05T20:03:24.843Z,28.60
2017-07-05T20:05:51.802Z,28.60
2017-07-05T20:08:18.792Z,28.50
2017-07-05T20:10:45.795Z,28.40
2017-07-05T20:13:12.683Z,28.40
2017-07-05T20:15:39.634Z,28.40
2017-07-05T20:18:06.589Z,28.40
2017-07-05T20:20:33.473Z,28.40
2017-07-05T20:23:00.387Z,28.50
2017-07-05T20:25:27.746Z,28.40
2017-07-05T20:27:54.690Z,28.40
2017-07-05T20:30:21.638Z,28.30
2017-07-05T20:32:48.994Z,28.10
2017-07-05T20:35:16.274Z,28.00
2017-07-05T20:37:43.194Z,28.00
2017-07-05T20:40:10.553Z,27.90
2017-07-05T20:42:37.905Z,27.80
2017-07-05T20:45:05.261Z,27.80
2017-07-05T20:47:32.918Z,27.60
2017-07-05T20:49:59.875Z,27.60
2017-07-05T20:52:27.156Z,27.60
2017-07-05T20:54:54.171Z,27.60
2017-07-05T20:57:21.050Z,27.50
2017-07-05T20:59:47.962Z,27.40
2017-07-05T21:02:15.337Z,27.30
2017-07-05T21:04:42.682Z,27.20
2017-07-05T21:07:10.033Z,27.20
2017-07-05T21:09:37.385Z,27.10
2017-07-05T21:12:04.739Z,27.10
2017-07-05T21:14:31.674Z,27.10
2017-07-05T21:16:59.246Z,27.00
2017-07-05T21:19:26.142Z,27.00
2017-07-05T21:21:53.042Z,26.90
2017-07-05T21:24:20.366Z,26.90
2017-07-05T21:26:47.343Z,26.90
2017-07-05T21:29:14.223Z,26.90
2017-07-05T21:31:41.149Z,26.90
2017-07-05T21:34:08.064Z,26.90
2017-07-05T21:36:35.294Z,26.90
2017-07-05T21:39:02.622Z,26.90
2017-07-05T21:41:29.530Z,26.90
2017-07-05T21:43:56.430Z,26.70
2017-07-05T21:46:23.777Z,26.50
2017-07-05T21:48:50.670Z,26.50
2017-07-05T21:51:17.570Z,26.50
2017-07-05T21:53:44.893Z,26.60
2017-07-05T21:56:11.789Z,26.60
2017-07-05T21:58:38.722Z,26.60
2017-07-05T22:01:06.053Z,26.50
2017-07-05T22:03:32.984Z,26.50
2017-07-05T22:05:59.958Z,26.50
2017-07-05T22:08:26.882Z,26.50
2017-07-05T22:10:53.926Z,26.50
2017-07-05T22:13:20.901Z,26.30
2017-07-05T22:15:47.849Z,26.20
2017-07-05T22:18:14.806Z,26.10
2017-07-05T22:20:42.158Z,26.10
2017-07-05T22:23:09.505Z,26.10
2017-07-05T22:25:36.454Z,26.00
2017-07-05T22:28:03.349Z,26.10
2017-07-05T22:30:30.333Z,25.90
2017-07-05T22:32:57.705Z,25.90
2017-07-05T22:35:24.649Z,25.90
2017-07-05T22:37:51.598Z,25.80
2017-07-05T22:40:18.489Z,25.70
2017-07-05T22:42:45.415Z,25.60
2017-07-05T22:45:12.457Z,25.60
2017-07-05T22:47:39.362Z,25.60
2017-07-05T22:50:06.330Z,25.60
2017-07-05T22:52:33.281Z,25.50
2017-07-05T22:55:00.632Z,25.40
2017-07-05T22:57:27.582Z,25.40
2017-07-05T22:59:54.935Z,25.40
2017-07-05T23:02:21.877Z,25.40
2017-07-05T23:04:48.768Z,25.30
2017-07-05T23:07:15.696Z,25.20
2017-07-05T23:09:43.028Z,25.10
2017-07-05T23:12:09.914Z,25.10
2017-07-05T23:14:36.842Z,25.10
2017-07-05T23:17:03.721Z,25.10
2017-07-05T23:19:30.614Z,25.10
2017-07-05T23:21:57.961Z,25.10
2017-07-05T23:24:24.914Z,25.10
2017-07-05T23:26:51.855Z,25.00
2017-07-05T23:29:19.110Z,24.90
2017-07-05T23:31:46.058Z,24.80
2017-07-05T23:34:13.002Z,24.60
2017-07-05T23:36:39.946Z,24.50
2017-07-05T23:39:06.835Z,24.40
2017-07-05T23:41:33.722Z,24.40
2017-07-05T23:44:00.713Z,24.30
2017-07-05T23:46:27.602Z,24.20
2017-07-05T23:48:54.486Z,24.20
2017-07-05T23:51:21.414Z,24.20
2017-07-05T23:53:48.297Z,24.10
2017-07-05T23:56:15.218Z,24.10
2017-07-05T23:58:42.275Z,24.00
